createdAt,value
2022-07-31T00:01:21.110Z,14.27
2022-07-31T00:03:47.760Z,14.90
2022-07-31T00:06:14.379Z,15.15
2022-07-31T00:08:41.114Z,15.40
2022-07-31T00:11:07.702Z,15.57
2022-07-31T00:13:56.386Z,17.13
2022-07-31T00:16:20.807Z,17.63
2022-07-31T00:18:47.379Z,19.23
2022-07-31T00:21:14.067Z,18.95
2022-07-31T00:23:41.044Z,19.15
2022-07-31T00:26:07.950Z,20.52
2022-07-31T00:28:34.579Z,20.40
2022-07-31T00:31:01.132Z,19.00
2022-07-31T00:33:27.856Z,25.65
2022-07-31T00:35:54.494Z,20.67
2022-07-31T00:38:28.331Z,18.52
2022-07-31T00:40:55.112Z,18.88
2022-07-31T00:43:22.106Z,21.65
2022-07-31T00:45:53.252Z,25.83
2022-07-31T00:48:26.199Z,27.83
2022-07-31T00:50:54.957Z,28.85
2022-07-31T00:53:21.516Z,26.42
2022-07-31T00:55:51.299Z,23.02
2022-07-31T00:58:19.873Z,20.35
2022-07-31T01:00:47.141Z,18.65
2022-07-31T01:03:14.375Z,20.50
2022-07-31T01:05:41.769Z,20.63
2022-07-31T01:08:08.447Z,21.20
2022-07-31T01:11:08.385Z,19.40
2022-07-31T01:13:59.344Z,18.35
2022-07-31T01:16:30.562Z,18.52
2022-07-31T01:18:58.524Z,20.38
2022-07-31T01:21:39.654Z,19.95
2022-07-31T01:24:49.598Z,19.63
2022-07-31T01:27:53.939Z,15.55
2022-07-31T01:30:28.909Z,20.42
2022-07-31T01:32:59.736Z,19.50
2022-07-31T01:35:30.656Z,22.92
2022-07-31T01:38:05.100Z,21.90
2022-07-31T01:40:41.212Z,19.15
2022-07-31T01:43:11.563Z,20.20
2022-07-31T01:45:41.037Z,21.00
2022-07-31T01:48:13.371Z,20.15
2022-07-31T01:50:44.316Z,20.25
2022-07-31T01:53:14.332Z,20.80
2022-07-31T01:56:02.341Z,21.17
2022-07-31T01:58:33.057Z,22.17
2022-07-31T02:01:03.695Z,22.48
2022-07-31T02:03:44.224Z,25.92
2022-07-31T02:06:16.764Z,26.10
2022-07-31T02:08:49.867Z,26.25
2022-07-31T02:11:18.920Z,23.08
2022-07-31T02:13:47.168Z,24.73
2022-07-31T02:16:16.235Z,25.10
2022-07-31T02:18:43.372Z,25.00
2022-07-31T02:21:10.569Z,25.88
2022-07-31T02:23:38.406Z,25.95
2022-07-31T02:26:06.981Z,27.25
2022-07-31T02:28:36.596Z,26.35
2022-07-31T02:31:03.652Z,24.23
2022-07-31T02:33:31.783Z,26.05
2022-07-31T02:35:59.344Z,26.95
2022-07-31T02:38:27.970Z,26.90
2022-07-31T02:40:58.516Z,28.88
2022-07-31T02:43:26.613Z,28.08
2022-07-31T02:45:54.728Z,26.17
2022-07-31T02:48:21.538Z,24.67
2022-07-31T02:50:48.378Z,23.38
2022-07-31T02:53:15.645Z,25.48
2022-07-31T02:55:45.358Z,25.10
2022-07-31T02:58:12.299Z,25.98
2022-07-31T03:00:38.974Z,27.65
2022-07-31T03:03:05.603Z,27.23
2022-07-31T03:05:32.227Z,26.80
2022-07-31T03:07:59.238Z,25.52
2022-07-31T03:10:25.920Z,25.42
2022-07-31T03:12:54.172Z,30.85
2022-07-31T03:15:23.549Z,31.98
2022-07-31T03:17:51.062Z,29.92
2022-07-31T03:20:18.282Z,27.38
2022-07-31T03:22:46.085Z,27.00
2022-07-31T03:25:21.306Z,23.73
2022-07-31T03:27:56.506Z,25.73
2022-07-31T03:30:27.292Z,24.55
2022-07-31T03:32:55.312Z,21.75
2022-07-31T03:35:23.167Z,25.77
2022-07-31T03:37:50.188Z,25.45
2022-07-31T03:40:17.105Z,25.15
2022-07-31T03:42:44.204Z,23.85
2022-07-31T03:45:13.462Z,22.80
2022-07-31T03:47:40.332Z,22.85
2022-07-31T03:50:08.460Z,22.13
2022-07-31T03:52:36.180Z,22.10
2022-07-31T03:55:03.022Z,22.50
2022-07-31T03:57:31.379Z,23.80
2022-07-31T04:00:02.300Z,22.15
2022-07-31T04:02:29.356Z,24.15
2022-07-31T04:04:57.160Z,21.80
2022-07-31T04:07:24.403Z,23.40
2022-07-31T04:09:51.038Z,22.92
2022-07-31T04:12:17.627Z,21.52
2022-07-31T04:14:44.246Z,24.08
2022-07-31T04:17:10.840Z,25.17
2022-07-31T04:19:37.513Z,24.92
2022-07-31T04:22:04.406Z,23.17
2022-07-31T04:24:31.296Z,24.17
2022-07-31T04:26:58.512Z,24.08
2022-07-31T04:29:28.524Z,22.67
2022-07-31T04:31:55.784Z,23.98
2022-07-31T04:34:22.391Z,24.45
2022-07-31T04:36:49.064Z,22.63
2022-07-31T04:39:15.604Z,21.17
2022-07-31T04:41:42.155Z,21.27
2022-07-31T04:44:08.692Z,25.60
2022-07-31T04:46:35.271Z,22.80
2022-07-31T04:49:01.990Z,25.83
2022-07-31T04:51:28.595Z,24.63
2022-07-31T04:53:55.147Z,25.13
2022-07-31T04:56:34.076Z,23.35
2022-07-31T04:59:03.454Z,21.63
2022-07-31T05:01:30.456Z,20.65
2022-07-31T05:03:57.582Z,19.85
2022-07-31T05:06:36.800Z,18.17
2022-07-31T05:09:08.947Z,17.33
2022-07-31T05:11:36.886Z,16.75
2022-07-31T05:14:05.981Z,15.38
2022-07-31T05:16:33.700Z,15.65
2022-07-31T05:19:01.242Z,15.75
2022-07-31T05:21:28.327Z,16.35
2022-07-31T05:23:55.561Z,16.60
2022-07-31T05:26:22.723Z,15.75
2022-07-31T05:28:53.189Z,15.40
2022-07-31T05:31:22.649Z,14.75
2022-07-31T05:33:51.352Z,15.27
2022-07-31T05:36:19.004Z,14.85
2022-07-31T05:38:45.812Z,16.30
2022-07-31T05:41:12.397Z,15.15
2022-07-31T05:43:39.124Z,14.48
2022-07-31T05:46:07.152Z,14.90
2022-07-31T05:48:34.159Z,15.38
2022-07-31T05:51:05.061Z,15.52
2022-07-31T05:53:32.218Z,15.18
2022-07-31T05:55:58.837Z,15.18
2022-07-31T05:58:25.440Z,13.63
2022-07-31T06:00:52.026Z,14.48
2022-07-31T06:03:24.427Z,12.77
2022-07-31T06:05:51.924Z,12.23
2022-07-31T06:08:18.668Z,12.18
2022-07-31T06:10:45.634Z,12.18
2022-07-31T06:13:13.387Z,13.77
2022-07-31T06:15:42.449Z,11.43
2022-07-31T06:18:16.124Z,10.65
2022-07-31T06:20:42.740Z,10.23
2022-07-31T06:23:14.623Z,9.55
2022-07-31T06:25:56.177Z,9.40
2022-07-31T06:28:31.919Z,10.43
2022-07-31T06:31:16.995Z,9.40
2022-07-31T06:33:43.527Z,9.05
2022-07-31T06:36:15.874Z,9.63
2022-07-31T06:38:42.407Z,8.98
2022-07-31T06:41:08.986Z,11.45
2022-07-31T06:43:35.627Z,8.98
2022-07-31T06:46:02.272Z,9.15
2022-07-31T06:48:28.840Z,9.65
2022-07-31T06:51:14.486Z,9.38
2022-07-31T06:53:42.048Z,10.07
2022-07-31T06:56:08.580Z,10.38
2022-07-31T06:58:35.147Z,9.70
2022-07-31T07:01:01.749Z,9.95
2022-07-31T07:03:28.959Z,10.25
2022-07-31T07:05:55.550Z,8.80
2022-07-31T07:08:22.196Z,8.00
2022-07-31T07:10:48.742Z,7.15
2022-07-31T07:13:15.286Z,6.97
2022-07-31T07:15:41.832Z,6.90
2022-07-31T07:18:08.428Z,6.22
2022-07-31T07:20:35.008Z,6.78
2022-07-31T07:23:01.560Z,5.97
2022-07-31T07:25:28.721Z,5.88
2022-07-31T07:27:56.621Z,4.97
2022-07-31T07:30:24.982Z,6.30
2022-07-31T07:32:51.549Z,5.85
2022-07-31T07:35:18.191Z,6.00
2022-07-31T07:37:44.777Z,5.53
2022-07-31T07:40:11.713Z,6.03
2022-07-31T07:42:38.319Z,5.93
2022-07-31T07:45:07.982Z,5.80
2022-07-31T07:48:02.867Z,5.32
2022-07-31T07:50:27.004Z,5.63
2022-07-31T07:52:59.088Z,5.85
2022-07-31T07:55:26.273Z,6.03
2022-07-31T07:57:53.169Z,4.63
2022-07-31T08:00:19.807Z,5.13
2022-07-31T08:03:46.601Z,4.47
2022-07-31T08:05:35.233Z,4.93
2022-07-31T08:08:03.053Z,4.20
2022-07-31T08:10:29.839Z,4.45
2022-07-31T08:12:57.575Z,5.13
2022-07-31T08:15:25.687Z,4.57
2022-07-31T08:17:52.406Z,4.22
2022-07-31T08:20:19.213Z,3.75
2022-07-31T08:22:45.813Z,3.80
2022-07-31T08:25:15.070Z,3.58
2022-07-31T08:27:41.926Z,3.50
2022-07-31T08:30:08.927Z,3.63
2022-07-31T08:32:36.031Z,3.55
2022-07-31T08:35:02.587Z,3.33
2022-07-31T08:37:52.613Z,3.20
2022-07-31T08:40:17.899Z,3.10
2022-07-31T08:42:45.869Z,3.17
2022-07-31T08:45:12.951Z,3.28
2022-07-31T08:47:44.579Z,3.17
2022-07-31T08:50:14.300Z,2.80
2022-07-31T08:52:43.245Z,3.10
2022-07-31T08:55:10.304Z,2.70
2022-07-31T08:57:36.999Z,2.58
2022-07-31T09:00:09.704Z,2.90
2022-07-31T09:02:39.168Z,2.40
2022-07-31T09:05:06.027Z,2.22
2022-07-31T09:07:32.651Z,2.35
2022-07-31T09:09:59.282Z,2.72
2022-07-31T09:12:34.242Z,2.58
2022-07-31T09:15:01.700Z,2.95
2022-07-31T09:17:36.198Z,2.72
2022-07-31T09:20:05.680Z,2.75
2022-07-31T09:22:32.493Z,2.38
2022-07-31T09:25:16.187Z,3.03
2022-07-31T09:27:43.014Z,2.40
2022-07-31T09:30:10.131Z,3.30
2022-07-31T09:32:36.767Z,2.72
2022-07-31T09:35:14.080Z,2.60
2022-07-31T09:37:46.090Z,3.17
2022-07-31T09:40:12.851Z,2.92
2022-07-31T09:42:46.041Z,3.03
2022-07-31T09:45:22.979Z,2.75
2022-07-31T09:48:14.380Z,2.72
2022-07-31T09:50:54.744Z,3.08
2022-07-31T09:53:21.970Z,2.85
2022-07-31T09:55:56.680Z,2.50
2022-07-31T09:58:24.142Z,2.75
2022-07-31T10:00:53.041Z,2.80
2022-07-31T10:03:20.694Z,2.75
2022-07-31T10:05:48.093Z,3.72
2022-07-31T10:08:17.250Z,2.40
2022-07-31T10:10:45.177Z,2.97
2022-07-31T10:13:15.381Z,2.88
2022-07-31T10:15:45.468Z,2.75
2022-07-31T10:18:12.278Z,2.60
2022-07-31T10:20:41.896Z,2.35
2022-07-31T10:23:16.378Z,2.65
2022-07-31T10:25:53.869Z,2.65
2022-07-31T10:28:22.098Z,2.05
2022-07-31T10:30:49.168Z,2.75
2022-07-31T10:33:41.855Z,3.00
2022-07-31T10:36:12.130Z,2.10
2022-07-31T10:38:50.010Z,2.38
2022-07-31T10:41:59.538Z,2.30
2022-07-31T10:45:00.722Z,2.03
2022-07-31T10:47:27.337Z,2.15
2022-07-31T10:49:53.928Z,2.42
2022-07-31T10:52:35.948Z,2.92
2022-07-31T10:55:14.132Z,2.38
2022-07-31T10:57:56.380Z,2.15
2022-07-31T11:00:29.642Z,2.30
2022-07-31T11:02:57.468Z,2.10
2022-07-31T11:05:25.869Z,2.10
2022-07-31T11:08:04.488Z,2.00
2022-07-31T11:10:31.501Z,2.00
2022-07-31T11:13:05.571Z,2.05
2022-07-31T11:15:32.454Z,2.00
2022-07-31T11:18:20.660Z,2.25
2022-07-31T11:20:59.966Z,2.15
2022-07-31T11:23:30.461Z,1.85
2022-07-31T11:26:05.629Z,1.92
2022-07-31T11:28:33.695Z,1.80
2022-07-31T11:31:03.992Z,1.58
2022-07-31T11:33:41.596Z,2.03
2022-07-31T11:36:10.178Z,1.85
2022-07-31T11:38:37.871Z,1.90
2022-07-31T11:41:06.510Z,1.70
2022-07-31T11:43:34.512Z,1.98
2022-07-31T11:46:02.305Z,2.00
2022-07-31T11:48:38.064Z,2.00
2022-07-31T11:51:06.643Z,2.40
2022-07-31T11:53:41.480Z,2.15
2022-07-31T11:56:08.142Z,2.08
2022-07-31T11:58:35.941Z,2.10
2022-07-31T12:01:04.839Z,2.28
2022-07-31T12:03:37.128Z,2.25
2022-07-31T12:06:08.300Z,2.15
2022-07-31T12:08:37.255Z,2.20
2022-07-31T12:11:06.016Z,2.60
2022-07-31T12:13:32.604Z,2.15
2022-07-31T12:16:09.263Z,2.63
2022-07-31T12:18:49.677Z,2.55
2022-07-31T12:21:17.630Z,3.40
2022-07-31T12:23:47.016Z,2.80
2022-07-31T12:26:33.886Z,2.80
2022-07-31T12:29:11.655Z,2.72
2022-07-31T12:31:52.692Z,2.30
2022-07-31T12:34:26.563Z,2.47
2022-07-31T12:37:14.402Z,3.08
2022-07-31T12:39:52.509Z,2.90
2022-07-31T12:42:41.273Z,2.40
2022-07-31T12:45:17.804Z,3.10
2022-07-31T12:47:52.195Z,2.65
2022-07-31T12:50:20.181Z,3.20
2022-07-31T12:52:46.764Z,2.70
2022-07-31T12:55:13.352Z,2.85
2022-07-31T12:57:51.322Z,2.78
2022-07-31T13:00:23.744Z,3.00
2022-07-31T13:02:54.732Z,2.50
2022-07-31T13:05:22.426Z,2.38
2022-07-31T13:07:49.426Z,3.20
2022-07-31T13:10:23.906Z,2.42
2022-07-31T13:12:52.101Z,2.50
2022-07-31T13:15:20.793Z,2.30
2022-07-31T13:17:50.218Z,2.58
2022-07-31T13:20:17.664Z,2.65
2022-07-31T13:22:44.220Z,2.40
2022-07-31T13:25:10.801Z,2.72
2022-07-31T13:27:37.436Z,2.25
2022-07-31T13:30:04.676Z,2.92
2022-07-31T13:32:31.704Z,2.60
2022-07-31T13:35:25.930Z,2.30
2022-07-31T13:37:46.390Z,2.35
2022-07-31T13:40:13.338Z,2.75
2022-07-31T13:42:39.899Z,2.95
2022-07-31T13:45:08.665Z,2.95
2022-07-31T13:47:50.620Z,2.70
2022-07-31T13:50:18.621Z,2.72
2022-07-31T13:52:45.159Z,2.72
2022-07-31T13:55:11.771Z,3.10
2022-07-31T13:57:38.325Z,2.80
2022-07-31T14:00:05.606Z,2.70
2022-07-31T14:02:32.351Z,2.45
2022-07-31T14:04:59.002Z,3.38
2022-07-31T14:07:45.339Z,2.70
2022-07-31T14:10:14.966Z,2.55
2022-07-31T14:12:44.375Z,2.55
2022-07-31T14:15:11.116Z,2.55
2022-07-31T14:17:37.726Z,2.53
2022-07-31T14:20:04.745Z,2.80
2022-07-31T14:22:31.428Z,2.78
2022-07-31T14:24:57.961Z,3.13
2022-07-31T14:27:24.629Z,2.60
2022-07-31T14:29:51.236Z,2.95
2022-07-31T14:32:19.164Z,2.55
2022-07-31T14:34:45.709Z,2.78
2022-07-31T14:37:12.338Z,2.58
2022-07-31T14:39:42.648Z,2.53
2022-07-31T14:42:10.082Z,2.42
2022-07-31T14:44:38.123Z,2.85
2022-07-31T14:47:05.129Z,2.70
2022-07-31T14:50:09.307Z,2.88
2022-07-31T14:52:18.773Z,2.53
2022-07-31T14:54:45.423Z,2.90
2022-07-31T14:57:12.157Z,2.58
2022-07-31T14:59:38.860Z,2.78
2022-07-31T15:02:06.054Z,2.65
2022-07-31T15:04:33.071Z,2.63
2022-07-31T15:07:25.316Z,2.97
2022-07-31T15:09:47.029Z,2.70
2022-07-31T15:12:16.718Z,2.63
2022-07-31T15:14:44.127Z,2.65
2022-07-31T15:17:10.914Z,2.70
2022-07-31T15:19:37.558Z,2.80
2022-07-31T15:22:11.272Z,2.80
2022-07-31T15:24:48.560Z,2.50
2022-07-31T15:27:16.374Z,2.78
2022-07-31T15:30:00.650Z,2.63
2022-07-31T15:32:29.635Z,2.47
2022-07-31T15:34:56.215Z,2.65
2022-07-31T15:37:22.771Z,2.63
2022-07-31T15:40:01.561Z,2.60
2022-07-31T15:42:34.516Z,2.88
2022-07-31T15:45:01.126Z,2.80
2022-07-31T15:47:27.738Z,3.10
2022-07-31T15:49:54.356Z,3.38
2022-07-31T15:52:21.105Z,3.35
2022-07-31T15:54:51.809Z,3.20
2022-07-31T15:57:20.236Z,3.63
2022-07-31T15:59:46.828Z,4.10
2022-07-31T16:02:13.464Z,3.95
2022-07-31T16:04:46.430Z,4.15
2022-07-31T16:08:31.378Z,4.40
2022-07-31T16:10:15.536Z,4.05
2022-07-31T16:12:45.446Z,3.80
2022-07-31T16:15:12.675Z,3.78
2022-07-31T16:17:39.872Z,3.92
2022-07-31T16:20:25.920Z,4.70
2022-07-31T16:23:02.956Z,4.35
2022-07-31T16:25:32.173Z,4.57
2022-07-31T16:28:01.750Z,4.47
2022-07-31T16:30:28.388Z,4.30
2022-07-31T16:32:54.963Z,4.72
2022-07-31T16:35:21.876Z,4.40
2022-07-31T16:37:51.016Z,4.65
2022-07-31T16:40:29.919Z,4.43
2022-07-31T16:43:48.532Z,4.40
2022-07-31T16:45:50.629Z,4.38
2022-07-31T16:48:17.272Z,4.95
2022-07-31T16:50:43.832Z,4.90
2022-07-31T16:54:09.769Z,5.13
2022-07-31T16:56:00.617Z,5.75
2022-07-31T16:58:28.702Z,4.80
2022-07-31T17:00:55.346Z,4.78
2022-07-31T17:04:01.843Z,5.00
2022-07-31T17:06:10.243Z,4.80
2022-07-31T17:08:38.086Z,5.13
2022-07-31T17:11:04.785Z,5.40
2022-07-31T17:13:31.434Z,5.15
2022-07-31T17:15:57.975Z,6.10
2022-07-31T17:18:25.247Z,5.43
2022-07-31T17:20:53.187Z,5.65
2022-07-31T17:23:43.452Z,5.70
2022-07-31T17:26:10.119Z,6.03
2022-07-31T17:28:47.494Z,5.60
2022-07-31T17:31:14.088Z,6.00
2022-07-31T17:33:59.678Z,6.03
2022-07-31T17:36:28.814Z,5.50
2022-07-31T17:38:56.277Z,5.53
2022-07-31T17:41:24.614Z,6.10
2022-07-31T17:43:53.295Z,6.45
2022-07-31T17:46:21.958Z,6.63
2022-07-31T17:48:55.695Z,6.55
2022-07-31T17:51:22.411Z,6.72
2022-07-31T17:53:55.520Z,6.97
2022-07-31T17:56:26.427Z,7.25
2022-07-31T17:58:53.176Z,7.43
2022-07-31T18:01:19.905Z,7.82
2022-07-31T18:03:46.590Z,7.55
2022-07-31T18:06:13.320Z,8.45
2022-07-31T18:08:39.958Z,9.10
2022-07-31T18:11:08.188Z,8.77
2022-07-31T18:13:48.195Z,9.43
2022-07-31T18:16:17.591Z,9.93
2022-07-31T18:18:44.874Z,10.68
2022-07-31T18:21:11.975Z,9.70
2022-07-31T18:23:43.445Z,11.07
2022-07-31T18:26:10.388Z,10.88
2022-07-31T18:28:37.326Z,11.57
2022-07-31T18:31:04.886Z,11.98
2022-07-31T18:33:51.443Z,12.07
2022-07-31T18:36:19.655Z,12.18
2022-07-31T18:38:46.189Z,11.70
2022-07-31T18:41:12.773Z,11.70
2022-07-31T18:43:39.419Z,12.85
2022-07-31T18:46:05.988Z,13.38
2022-07-31T18:48:32.640Z,13.85
2022-07-31T18:51:04.391Z,13.20
2022-07-31T18:53:32.220Z,12.65
2022-07-31T18:55:58.788Z,13.50
2022-07-31T18:58:25.443Z,12.95
2022-07-31T19:00:55.203Z,13.32
2022-07-31T19:03:23.274Z,13.98
2022-07-31T19:05:52.184Z,15.10
2022-07-31T19:08:19.439Z,14.32
2022-07-31T19:10:46.101Z,14.32
2022-07-31T19:13:16.098Z,14.75
2022-07-31T19:15:46.376Z,14.80
2022-07-31T19:18:13.411Z,13.75
2022-07-31T19:20:58.842Z,14.02
2022-07-31T19:23:27.610Z,14.95
2022-07-31T19:26:02.561Z,14.80
2022-07-31T19:28:31.885Z,14.65
2022-07-31T19:30:58.566Z,15.30
2022-07-31T19:33:25.315Z,14.52
2022-07-31T19:35:58.456Z,15.85
2022-07-31T19:38:28.142Z,14.02
2022-07-31T19:40:54.799Z,14.27
2022-07-31T19:43:21.463Z,13.88
2022-07-31T19:46:02.661Z,14.90
2022-07-31T19:48:36.460Z,17.23
2022-07-31T19:51:03.685Z,16.35
2022-07-31T19:53:30.244Z,14.57
2022-07-31T19:55:56.957Z,17.08
2022-07-31T19:58:23.547Z,16.48
2022-07-31T20:00:50.202Z,17.73
2022-07-31T20:03:16.998Z,16.65
2022-07-31T20:05:43.676Z,14.45
2022-07-31T20:08:10.356Z,13.25
2022-07-31T20:10:37.171Z,12.57
2022-07-31T20:13:03.831Z,10.35
2022-07-31T20:15:51.076Z,9.50
2022-07-31T20:18:27.519Z,8.60
2022-07-31T20:21:14.693Z,7.97
2022-07-31T20:23:41.714Z,7.85
2022-07-31T20:26:10.885Z,7.82
2022-07-31T20:28:39.995Z,7.25
2022-07-31T20:31:08.209Z,7.28
2022-07-31T20:33:56.450Z,7.97
2022-07-31T20:36:23.831Z,7.68
2022-07-31T20:38:50.500Z,7.20
2022-07-31T20:41:17.924Z,6.88
2022-07-31T20:43:44.534Z,7.07
2022-07-31T20:46:11.801Z,6.00
2022-07-31T20:48:38.879Z,6.38
2022-07-31T20:51:06.884Z,6.03
2022-07-31T20:53:33.475Z,5.50
2022-07-31T20:56:00.265Z,5.90
2022-07-31T20:58:28.185Z,6.47
2022-07-31T21:00:55.180Z,5.30
2022-07-31T21:03:21.881Z,4.90
2022-07-31T21:05:48.876Z,4.72
2022-07-31T21:08:16.216Z,5.75
2022-07-31T21:10:43.218Z,5.47
2022-07-31T21:13:10.038Z,5.05
2022-07-31T21:15:43.646Z,4.90
2022-07-31T21:18:16.416Z,5.30
2022-07-31T21:20:51.946Z,4.68
2022-07-31T21:23:24.712Z,4.88
2022-07-31T21:25:53.691Z,4.50
2022-07-31T21:28:21.576Z,5.00
2022-07-31T21:30:48.610Z,4.15
2022-07-31T21:33:15.926Z,5.45
2022-07-31T21:35:42.783Z,5.35
2022-07-31T21:38:15.101Z,4.95
2022-07-31T21:40:42.051Z,5.10
2022-07-31T21:43:09.779Z,5.03
2022-07-31T21:45:48.983Z,4.75
2022-07-31T21:48:24.691Z,5.30
2022-07-31T21:50:51.540Z,5.32
2022-07-31T21:53:18.089Z,4.68
2022-07-31T21:55:44.653Z,5.45
2022-07-31T21:58:11.372Z,5.65
2022-07-31T22:00:38.231Z,4.88
2022-07-31T22:03:05.725Z,5.05
2022-07-31T22:05:51.285Z,5.35
2022-07-31T22:08:18.293Z,4.70
2022-07-31T22:10:44.871Z,4.82
2022-07-31T22:13:11.610Z,4.78
2022-07-31T22:15:55.525Z,5.10
2022-07-31T22:18:30.116Z,5.22
2022-07-31T22:20:58.179Z,4.97
2022-07-31T22:23:27.299Z,5.45
2022-07-31T22:25:54.840Z,5.82
2022-07-31T22:28:23.142Z,4.75
2022-07-31T22:30:50.655Z,5.43
2022-07-31T22:33:17.291Z,4.78
2022-07-31T22:35:44.042Z,5.30
2022-07-31T22:38:13.842Z,5.65
2022-07-31T22:40:40.516Z,5.75
2022-07-31T22:44:09.593Z,5.35
2022-07-31T22:45:59.730Z,5.78
2022-07-31T22:48:27.781Z,5.30
2022-07-31T22:50:55.502Z,5.88
2022-07-31T22:53:22.440Z,5.78
2022-07-31T22:55:49.099Z,5.72
2022-07-31T22:58:15.645Z,5.38
2022-07-31T23:00:42.474Z,5.15
2022-07-31T23:03:09.022Z,5.75
2022-07-31T23:06:02.679Z,6.30
2022-07-31T23:08:22.101Z,5.75
2022-07-31T23:10:48.725Z,5.40
2022-07-31T23:13:15.266Z,6.10
2022-07-31T23:15:41.826Z,6.18
2022-07-31T23:18:08.373Z,6.53
2022-07-31T23:20:34.951Z,6.43
2022-07-31T23:23:01.486Z,6.10
2022-07-31T23:25:28.032Z,7.25
2022-07-31T23:27:54.640Z,6.25
2022-07-31T23:30:21.273Z,6.95
2022-07-31T23:32:47.827Z,7.05
2022-07-31T23:35:14.491Z,6.78
2022-07-31T23:37:41.053Z,7.10
2022-07-31T23:40:08.065Z,7.60
2022-07-31T23:42:40.472Z,7.63
2022-07-31T23:45:11.240Z,7.03
2022-07-31T23:47:46.174Z,7.00
2022-07-31T23:50:14.857Z,7.80
2022-07-31T23:52:42.331Z,7.78
2022-07-31T23:55:09.435Z,7.45
2022-07-31T23:57:36.559Z,6.85
